MST,Max TemperatureF,Mean TemperatureF,Min TemperatureF,Max Dew PointF,MeanDew PointF,Min DewpointF,Max Humidity, Mean Humidity, Min Humidity, Max Sea Level PressureIn, Mean Sea Level PressureIn, Min Sea Level PressureIn, Max VisibilityMiles, Mean VisibilityMiles, Min VisibilityMiles, Max Wind SpeedMPH, Mean Wind SpeedMPH, Max Gust SpeedMPH,PrecipitationIn, CloudCover, Events, WindDirDegrees
2012-12-1,,,,,,,,,,,,,,,,,,,,,,
2012-12-2,,,,,,,,,,,,,,,,,,,,,,
2012-12-3,,,,,,,,,,,,,,,,,,,,,,
2012-12-4,,,,,,,,,,,,,,,,,,,,,,
2012-12-5,71,52,32,30,25,19,64,40,22,30.30,30.19,30.08,10,10,10,12,3,,0.00,0,,141
2012-12-6,73,52,30,28,22,14,56,35,16,30.07,29.99,29.91,10,10,10,15,2,20,0.00,0,,306
2012-12-7,68,52,37,32,25,14,57,38,26,30.01,29.96,29.91,10,10,10,17,4,22,0.00,0,,272
2012-12-8,66,50,35,34,29,27,75,49,24,30.04,29.98,29.92,10,10,10,17,5,24,0.00,0,,298
2012-12-9,64,48,32,30,24,14,80,43,18,30.14,30.00,29.91,10,10,10,28,6,41,0.00,0,,292
2012-12-10,51,38,24,21,10,1,59,34,16,30.19,30.10,30.02,10,10,10,12,5,,0.00,0,,203
2012-12-11,55,37,19,12,5,-2,42,27,15,30.14,30.08,30.04,10,10,10,10,3,,0.00,0,,187
2012-12-12,62,40,19,18,9,-2,42,28,16,30.14,30.09,30.04,10,10,10,14,7,18,0.00,0,,154
2012-12-13,64,47,30,45,25,12,87,41,25,30.08,30.00,29.85,10,10,10,18,8,28,0.01,3,Rain,149
2012-12-14,51,42,32,46,36,30,100,76,50,30.07,29.92,29.74,10,10,4,31,13,43,0.04,5,Rain,255
2012-12-15,55,42,30,37,32,28,93,71,38,30.06,30.00,29.94,10,10,10,12,3,17,0.00,5,Rain,238
2012-12-16,50,41,30,39,34,28,93,79,50,30.16,30.06,29.98,10,10,4,23,9,29,0.01,4,Rain,298
2012-12-17,51,38,26,34,30,25,100,78,47,30.19,30.12,30.04,10,10,10,9,5,,0.00,0,,292
2012-12-18,60,42,24,36,31,23,100,66,31,30.04,29.90,29.78,10,10,10,10,2,,0.00,0,,286
2012-12-19,53,40,26,39,28,21,93,63,39,30.31,30.00,29.73,10,10,4,23,9,32,0.02,3,Rain-Snow,283
2012-12-20,46,30,15,25,13,9,93,50,22,30.45,30.36,30.31,10,10,10,23,9,30,0.00,0,,143
2012-12-21,55,44,32,10,7,3,38,26,13,30.32,30.25,30.17,10,10,10,22,12,29,0.00,0,,147
2012-12-22,59,46,32,25,17,10,60,37,17,30.22,30.17,30.12,10,10,10,9,4,,0.00,0,,163
2012-12-23,60,45,30,30,25,21,75,53,29,30.19,30.12,30.06,10,10,10,10,3,,0.00,0,,284
2012-12-24,59,46,32,36,27,21,70,51,29,30.06,29.94,29.78,10,10,10,21,7,29,0.00,1,,292
2012-12-25,50,46,41,32,26,16,70,49,32,30.08,30.01,29.91,10,10,10,17,11,26,0.00,2,,292
2012-12-26,55,44,32,21,18,14,55,40,26,30.04,29.93,29.82,10,10,10,15,9,23,0.00,0,,159
2012-12-27,50,39,28,32,25,19,93,62,35,30.00,29.87,29.78,10,10,10,21,10,31,0.00,2,,302
2012-12-28,46,34,21,30,23,12,100,68,37,30.18,30.09,30.01,10,10,10,12,4,17,0.00,1,,301
2012-12-29,50,36,21,19,15,12,74,43,24,30.23,30.14,30.04,10,10,10,30,14,37,0.00,0,,139
2012-12-30,55,46,37,36,21,14,93,42,28,30.03,29.92,29.80,10,10,3,24,13,31,0.01,3,,166
2012-12-31,44,36,28,34,31,27,93,80,53,30.16,30.03,29.91,10,10,10,18,6,25,0.00,6,Snow,275